Time;durP1;ratioP1;P1;durP2;ratioP2;P2;SDS_P1;SDS_P2;PMS_P1;PMS_P2;Temp;Humidity;BMP_temperature;BMP_pressure;BME280_temperature;BME280_humidity;BME280_pressure;Samples;Min_cycle;Max_cycle;Signal;HPM_P1;HPM_P2
2022/08/22 04:01:46;;;;;;;4.70;2.23;;;9.50;96.30;;;;;;5484412;23;20492;-79
2022/08/22 04:04:47;;;;;;;6.33;2.47;;;9.50;96.30;;;;;;4970835;28;20472;-79
2022/08/22 04:07:39;;;;;;;5.33;2.10;;;9.50;96.30;;;;;;4952006;28;20940;-77
2022/08/22 04:10:32;;;;;;;3.97;2.20;;;9.50;96.30;;;;;;4976395;28;20500;-77
2022/08/22 04:13:15;;;;;;;11.17;2.57;;;9.50;96.30;;;;;;4957536;29;20887;-78
2022/08/22 04:15:56;;;;;;;3.93;1.80;;;9.40;96.30;;;;;;4943709;29;20422;-76
2022/08/22 04:19:07;;;;;;;2.73;1.90;;;9.40;96.30;;;;;;4959625;29;20502;-76
2022/08/22 04:21:41;;;;;;;5.23;2.37;;;9.40;96.30;;;;;;4932187;28;20476;-77
2022/08/22 04:24:32;;;;;;;7.07;2.60;;;9.40;96.30;;;;;;4957318;29;20408;-78
2022/08/22 04:27:13;;;;;;;2.97;2.30;;;9.50;96.30;;;;;;4939662;29;20426;-78
2022/08/22 04:29:58;;;;;;;4.70;2.23;;;9.50;96.30;;;;;;4955147;29;20458;-77
2022/08/22 04:32:56;;;;;;;2.10;1.90;;;9.50;96.30;;;;;;4956989;28;20989;-77
2022/08/22 04:35:54;;;;;;;2.80;2.10;;;9.60;96.30;;;;;;4931803;29;20431;-78
2022/08/22 04:38:32;;;;;;;2.87;2.03;;;9.60;96.30;;;;;;4895773;29;20434;-77
2022/08/22 04:41:26;;;;;;;2.43;2.23;;;9.60;96.30;;;;;;4942684;29;20451;-77
2022/08/22 04:44:26;;;;;;;4.60;1.80;;;9.70;96.30;;;;;;4910139;29;20438;-78
2022/08/22 04:47:13;;;;;;;7.37;2.27;;;9.70;96.30;;;;;;4927273;29;20432;-76
2022/08/22 04:50:01;;;;;;;7.43;2.07;;;9.70;96.30;;;;;;4927705;29;20540;-77
2022/08/22 04:52:58;;;;;;;5.97;2.87;;;9.80;96.30;;;;;;4943158;29;20525;-76
2022/08/22 04:55:48;;;;;;;3.40;2.10;;;9.90;96.30;;;;;;4956652;29;20402;-76
2022/08/22 04:58:44;;;;;;;4.20;2.53;;;9.90;96.30;;;;;;4954659;29;20949;-76
2022/08/22 05:01:17;;;;;;;2.83;2.23;;;9.90;96.30;;;;;;4937259;29;20487;-75
2022/08/22 05:03:57;;;;;;;8.40;2.50;;;10.00;96.30;;;;;;4954564;29;20907;-76
2022/08/22 05:06:25;;;;;;;4.00;2.00;;;10.10;96.30;;;;;;4953674;28;20423;-75
2022/08/22 05:08:51;;;;;;;4.20;2.50;;;10.10;96.30;;;;;;4950069;29;20431;-76
2022/08/22 05:11:20;;;;;;;2.93;2.60;;;10.20;96.30;;;;;;4935167;29;20467;-76
2022/08/22 05:13:59;;;;;;;4.27;2.20;;;10.30;96.30;;;;;;4942229;29;20507;-76
2022/08/22 05:16:31;;;;;;;4.97;2.07;;;10.40;96.30;;;;;;4942142;29;20415;-75
2022/08/22 05:19:05;;;;;;;2.07;1.90;;;10.50;96.30;;;;;;4955490;29;20497;-77
2022/08/22 05:21:35;;;;;;;2.77;2.00;;;10.60;96.30;;;;;;4952249;28;20438;-76
2022/08/22 05:24:26;;;;;;;7.00;2.43;;;10.70;96.30;;;;;;4947984;29;20417;-74
2022/08/22 05:26:55;;;;;;;2.30;2.00;;;10.80;96.30;;;;;;4945147;29;20513;-76
2022/08/22 05:29:29;;;;;;;3.00;1.97;;;10.90;96.30;;;;;;4954813;29;20530;-75
2022/08/22 05:32:04;;;;;;;3.63;2.20;;;11.00;96.30;;;;;;4955338;28;20485;-75
2022/08/22 05:34:36;;;;;;;3.57;2.40;;;11.10;96.30;;;;;;4937106;29;20411;-75
2022/08/22 05:37:12;;;;;;;5.47;2.70;;;11.20;96.30;;;;;;4936847;29;20923;-75
2022/08/22 05:39:45;;;;;;;2.30;2.10;;;11.40;96.30;;;;;;4935804;29;20423;-76
2022/08/22 05:42:17;;;;;;;7.20;2.50;;;11.60;96.30;;;;;;4937136;29;20489;-75
2022/08/22 05:44:42;;;;;;;3.83;1.87;;;11.70;96.30;;;;;;4954557;29;20418;-75
2022/08/22 05:47:38;;;;;;;3.27;2.13;;;11.80;96.30;;;;;;4955377;29;20415;-75
2022/08/22 05:50:11;;;;;;;3.20;2.20;;;12.00;96.30;;;;;;4954945;29;20258;-75
2022/08/22 05:52:55;;;;;;;2.10;1.90;;;12.30;96.30;;;;;;4938234;29;20411;-75
2022/08/22 05:55:27;;;;;;;2.70;2.17;;;12.50;96.30;;;;;;4955393;29;20414;-74
2022/08/22 05:58:23;;;;;;;3.17;2.07;;;12.60;96.30;;;;;;4954800;29;20879;-75
2022/08/22 06:00:57;;;;;;;4.53;2.20;;;12.80;96.30;;;;;;4946649;29;20459;-75
2022/08/22 06:03:32;;;;;;;4.53;1.87;;;13.20;96.30;;;;;;4938606;29;20433;-75
2022/08/22 06:06:02;;;;;;;2.23;1.83;;;13.60;96.30;;;;;;4955623;29;20929;-75
2022/08/22 06:08:36;;;;;;;2.67;1.83;;;13.90;96.30;;;;;;4954456;29;20419;-75
2022/08/22 06:11:08;;;;;;;7.50;2.10;;;14.00;96.30;;;;;;4954909;28;20549;-74
2022/08/22 06:14:06;;;;;;;11.10;2.50;;;14.20;96.30;;;;;;4949911;29;20770;-75
2022/08/22 06:16:45;;;;;;;4.50;1.77;;;14.50;96.30;;;;;;4929717;29;20416;-75
2022/08/22 06:19:14;;;;;;;5.23;2.20;;;14.90;96.30;;;;;;4928242;29;20966;-76
2022/08/22 06:21:42;;;;;;;8.50;2.30;;;15.10;96.30;;;;;;4944464;29;20510;-75
2022/08/22 06:24:14;;;;;;;3.10;2.20;;;15.20;96.30;;;;;;4954688;29;20503;-76
2022/08/22 06:26:43;;;;;;;4.30;2.30;;;15.50;96.30;;;;;;4943302;29;20404;-76
2022/08/22 06:29:16;;;;;;;2.50;1.93;;;15.70;96.30;;;;;;4934898;29;20767;-76
2022/08/22 06:31:45;;;;;;;3.10;1.70;;;16.10;96.30;;;;;;4940444;29;20426;-76
2022/08/22 06:34:16;;;;;;;3.17;1.90;;;16.40;96.30;;;;;;4952971;29;20414;-76
2022/08/22 06:36:47;;;;;;;5.27;2.10;;;16.30;96.30;;;;;;4954401;29;20446;-76
2022/08/22 06:39:22;;;;;;;2.20;1.70;;;16.70;96.30;;;;;;4954221;29;20518;-76
2022/08/22 06:41:55;;;;;;;4.00;1.90;;;16.90;96.30;;;;;;4950673;28;20466;-76
2022/08/22 06:44:26;;;;;;;2.87;1.93;;;17.70;96.30;;;;;;4949477;29;20547;-76
2022/08/22 06:46:56;;;;;;;7.80;2.40;;;18.20;96.30;;;;;;4952353;29;20438;-77
2022/08/22 06:49:24;;;;;;;4.93;2.30;;;18.30;96.30;;;;;;4953488;29;20454;-76
2022/08/22 06:51:52;;;;;;;3.90;2.20;;;18.40;96.30;;;;;;4954251;28;20427;-78
2022/08/22 06:54:22;;;;;;;16.50;2.53;;;18.90;96.30;;;;;;4954622;29;20406;-77
2022/08/22 06:56:50;;;;;;;4.53;2.50;;;19.90;96.30;;;;;;4954575;29;20404;-76
2022/08/22 06:59:21;;;;;;;2.67;1.77;;;19.80;96.30;;;;;;4951854;29;20434;-76
2022/08/22 07:02:01;;;;;;;2.20;2.00;;;20.60;96.30;;;;;;4954049;28;20454;-76
2022/08/22 07:04:27;;;;;;;4.13;1.70;;;20.10;96.30;;;;;;4954405;29;20450;-77
2022/08/22 07:06:55;;;;;;;7.90;2.07;;;20.10;96.30;;;;;;4945976;29;20404;-76
2022/08/22 07:09:37;;;;;;;7.20;2.37;;;20.70;96.30;;;;;;4946775;29;20501;-77
2022/08/22 07:12:12;;;;;;;4.80;2.23;;;20.80;96.30;;;;;;4945028;28;20770;-78
2022/08/22 07:14:44;;;;;;;7.97;1.73;;;21.20;96.30;;;;;;4947946;29;20406;-77
2022/08/22 07:17:45;;;;;;;5.70;2.10;;;21.60;96.30;;;;;;4943086;29;20418;-77
2022/08/22 07:20:26;;;;;;;3.37;1.90;;;21.20;96.30;;;;;;4925436;28;20427;-77
2022/08/22 07:22:54;;;;;;;7.90;2.40;;;21.10;96.30;;;;;;4942616;29;20418;-77
2022/08/22 07:25:20;;;;;;;6.10;4.33;;;21.30;96.30;;;;;;4944344;29;20431;-77
2022/08/22 07:28:12;;;;;;;7.60;2.40;;;21.10;96.30;;;;;;4930283;29;20467;-77
2022/08/22 07:31:01;;;;;;;3.10;2.30;;;21.90;96.30;;;;;;4934243;29;20540;-77
2022/08/22 07:33:43;;;;;;;3.77;2.10;;;22.10;96.30;;;;;;4934800;29;20404;-78
2022/08/22 07:36:40;;;;;;;3.77;2.00;;;22.30;96.30;;;;;;4934891;29;20392;-78
2022/08/22 07:39:24;;;;;;;5.47;2.10;;;21.90;96.30;;;;;;4933758;29;20494;-77
2022/08/22 07:42:10;;;;;;;3.97;2.17;;;21.90;96.30;;;;;;4949916;28;20489;-77
2022/08/22 07:44:59;;;;;;;9.83;2.13;;;22.30;96.30;;;;;;4954016;29;20402;-79
2022/08/22 07:47:46;;;;;;;6.33;1.87;;;22.80;96.30;;;;;;4963675;29;20402;-77
2022/08/22 07:50:20;;;;;;;5.37;2.10;;;23.00;96.30;;;;;;4953586;28;20481;-77
2022/08/22 07:52:46;;;;;;;6.63;2.97;;;23.20;96.30;;;;;;4936842;29;20410;-77
2022/08/22 07:55:22;;;;;;;5.37;2.40;;;23.40;96.30;;;;;;4953968;29;20451;-77
2022/08/22 07:58:02;;;;;;;4.90;2.20;;;23.80;96.30;;;;;;4953828;29;20911;-77
2022/08/22 08:00:30;;;;;;;7.60;2.40;;;24.50;95.40;;;;;;4936336;28;21442;-77
2022/08/22 08:03:01;;;;;;;4.57;2.10;;;25.00;94.60;;;;;;4934266;29;20776;-78
2022/08/22 08:05:31;;;;;;;5.53;2.40;;;24.80;91.60;;;;;;4939684;29;20410;-76
2022/08/22 08:07:58;;;;;;;5.70;2.37;;;24.50;93.70;;;;;;4953339;29;20843;-76
2022/08/22 08:10:33;;;;;;;8.93;2.03;;;25.10;92.10;;;;;;4950809;28;20457;-76
2022/08/22 08:13:03;;;;;;;5.23;2.67;;;25.20;90.30;;;;;;4953436;29;20830;-76
2022/08/22 08:15:32;;;;;;;6.60;2.50;;;25.20;89.80;;;;;;4953421;29;20405;-75
2022/08/22 08:18:04;;;;;;;3.90;2.00;;;25.50;89.90;;;;;;4952390;29;20418;-76
2022/08/22 08:20:33;;;;;;;5.17;2.73;;;26.20;90.40;;;;;;4936227;28;20429;-78
2022/08/22 08:23:00;;;;;;;6.43;2.40;;;26.70;86.20;;;;;;4953589;29;20434;-76
2022/08/22 08:25:28;;;;;;;3.30;2.17;;;26.60;88.40;;;;;;4942869;29;20414;-78
2022/08/22 08:31:06;;;;;;;5.27;2.13;;;25.70;88.20;;;;;;4948326;29;20469;-77
2022/08/22 08:33:33;;;;;;;9.93;2.60;;;26.10;90.20;;;;;;4939613;29;20408;-76
2022/08/22 08:36:15;;;;;;;5.23;2.13;;;26.20;89.30;;;;;;4944418;29;20407;-77
2022/08/22 08:39:01;;;;;;;6.50;2.33;;;26.20;87.50;;;;;;4942305;29;20396;-77
2022/08/22 08:42:08;;;;;;;6.10;2.60;;;26.40;88.80;;;;;;4949921;29;20441;-77
2022/08/22 08:44:45;;;;;;;7.40;2.67;;;26.70;87.30;;;;;;4940041;29;20411;-77
2022/08/22 08:47:42;;;;;;;6.17;2.20;;;26.30;86.30;;;;;;4937669;29;20450;-77
2022/08/22 08:50:35;;;;;;;8.23;2.47;;;26.70;87.80;;;;;;4942558;29;20549;-77
2022/08/22 08:53:17;;;;;;;8.43;2.70;;;26.20;89.50;;;;;;4937471;29;20411;-77
2022/08/22 08:56:16;;;;;;;7.20;1.90;;;26.00;89.10;;;;;;4937419;29;20395;-77
2022/08/22 08:58:59;;;;;;;3.00;1.80;;;24.70;89.70;;;;;;4944213;29;20782;-76
2022/08/22 09:02:04;;;;;;;4.97;2.10;;;22.90;91.60;;;;;;4947671;29;20801;-76
2022/08/22 09:04:35;;;;;;;5.87;2.37;;;22.00;96.30;;;;;;4946030;28;20801;-76
2022/08/22 09:07:34;;;;;;;2.77;1.70;;;21.40;96.30;;;;;;4956414;29;20429;-76
2022/08/22 09:10:25;;;;;;;4.43;2.20;;;21.40;96.30;;;;;;4955337;29;21017;-76
2022/08/22 09:13:36;;;;;;;11.00;1.70;;;22.10;96.30;;;;;;4939119;29;20465;-77
2022/08/22 09:16:30;;;;;;;5.70;1.80;;;21.90;96.30;;;;;;4956582;29;20429;-76
2022/08/22 09:19:29;;;;;;;4.37;2.27;;;22.40;96.30;;;;;;4925759;29;20454;-76
2022/08/22 09:22:06;;;;;;;6.40;2.80;;;22.40;96.30;;;;;;4952907;28;20445;-76
2022/08/22 09:24:58;;;;;;;4.83;2.10;;;21.90;96.30;;;;;;4946558;29;20419;-77
2022/08/22 09:27:29;;;;;;;6.00;2.23;;;21.90;96.30;;;;;;4947869;29;20423;-76
2022/08/22 09:30:03;;;;;;;3.30;2.10;;;22.00;96.30;;;;;;4944096;29;20461;-76
2022/08/22 09:32:43;;;;;;;5.23;2.23;;;21.90;96.30;;;;;;4947638;28;20439;-76
2022/08/22 09:35:54;;;;;;;6.63;2.50;;;22.20;96.30;;;;;;4944206;29;20771;-76
2022/08/22 09:38:55;;;;;;;7.90;1.97;;;21.80;96.30;;;;;;4936144;29;20419;-76
2022/08/22 09:41:43;;;;;;;5.90;1.90;;;21.40;96.30;;;;;;4943434;29;20888;-76
2022/08/22 09:44:41;;;;;;;4.93;2.03;;;21.60;96.30;;;;;;4936563;29;20514;-76
2022/08/22 09:47:29;;;;;;;4.13;1.93;;;21.50;96.30;;;;;;4941453;29;20426;-76
2022/08/22 09:50:12;;;;;;;5.07;1.80;;;21.70;96.30;;;;;;4955044;29;20450;-75
2022/08/22 09:52:53;;;;;;;7.80;2.03;;;22.10;96.30;;;;;;4954603;28;20415;-76
2022/08/22 09:55:53;;;;;;;5.20;2.37;;;21.80;96.30;;;;;;4955366;29;20775;-75
2022/08/22 09:58:42;;;;;;;3.30;1.63;;;21.90;96.30;;;;;;4953364;29;20558;-75
2022/08/22 10:01:17;;;;;;;6.60;1.83;;;22.50;96.30;;;;;;4953785;29;21128;-75
2022/08/22 10:04:04;;;;;;;4.20;2.23;;;22.20;96.30;;;;;;4955180;29;20434;-75
2022/08/22 10:07:03;;;;;;;4.40;2.00;;;22.10;96.30;;;;;;4955626;29;20410;-75
2022/08/22 10:09:57;;;;;;;4.93;2.00;;;22.50;96.30;;;;;;4947256;29;20831;-76
2022/08/22 10:12:42;;;;;;;3.33;1.53;;;22.30;96.30;;;;;;4936824;29;20514;-76
2022/08/22 10:15:34;;;;;;;15.80;2.60;;;22.50;96.30;;;;;;4937238;29;20544;-76
2022/08/22 10:18:24;;;;;;;7.10;2.63;;;22.80;96.30;;;;;;4933415;29;20554;-75
2022/08/22 10:21:05;;;;;;;10.03;2.97;;;22.30;96.30;;;;;;4955488;28;20844;-74
2022/08/22 10:23:31;;;;;;;5.00;1.87;;;;;;;;;;4951407;28;20422;-75
2022/08/22 10:26:33;;;;;;;3.43;1.70;;;22.20;96.30;;;;;;4958862;28;20413;-75
2022/08/22 10:29:01;;;;;;;5.70;1.80;;;22.10;96.30;;;;;;4974765;28;20176;-76
2022/08/22 10:31:30;;;;;;;6.37;1.97;;;21.50;96.30;;;;;;4975598;28;20497;-76
2022/08/22 10:34:08;;;;;;;4.20;1.80;;;21.60;96.30;;;;;;4975733;28;20437;-75
2022/08/22 10:36:38;;;;;;;4.47;1.90;;;21.80;96.30;;;;;;4943707;29;20415;-75
2022/08/22 10:39:09;;;;;;;7.43;2.10;;;21.60;96.30;;;;;;4961548;28;20409;-74
2022/08/22 10:41:56;;;;;;;5.80;2.10;;;22.10;96.30;;;;;;4955691;28;20476;-74
2022/08/22 10:44:47;;;;;;;4.50;1.83;;;22.50;96.30;;;;;;4955091;29;20426;-74
2022/08/22 10:47:33;;;;;;;5.23;2.20;;;22.30;96.30;;;;;;4954689;29;20415;-77
2022/08/22 10:50:14;;;;;;;7.03;2.23;;;22.30;96.30;;;;;;4955153;29;20833;-74
2022/08/22 10:52:47;;;;;;;8.53;2.50;;;22.90;96.30;;;;;;4954662;29;20786;-75
2022/08/22 10:55:19;;;;;;;6.87;2.27;;;22.90;95.00;;;;;;4954587;29;20422;-74
2022/08/22 10:58:04;;;;;;;13.40;2.07;;;22.70;96.30;;;;;;4954462;29;20422;-80
2022/08/22 11:00:49;;;;;;;5.87;2.47;;;22.60;96.30;;;;;;4954443;28;20458;-75
2022/08/22 11:03:23;;;;;;;4.10;1.90;;;22.30;96.30;;;;;;4954297;28;20399;-75
2022/08/22 11:05:51;;;;;;;5.73;2.50;;;21.80;96.30;;;;;;4953982;29;20437;-77
2022/08/22 11:08:33;;;;;;;6.97;1.93;;;21.60;96.30;;;;;;4953674;29;20454;-76
2022/08/22 11:11:07;;;;;;;3.50;1.80;;;21.10;96.30;;;;;;4933495;29;20598;-75
2022/08/22 11:13:41;;;;;;;3.03;1.70;;;21.10;96.30;;;;;;4935217;29;20439;-76
2022/08/22 11:16:18;;;;;;;4.07;1.73;;;21.10;96.30;;;;;;4935066;29;20423;-76
2022/08/22 11:19:08;;;;;;;6.40;2.50;;;20.70;96.30;;;;;;4935543;29;20403;-75
2022/08/22 11:21:44;;;;;;;4.17;1.87;;;20.80;96.30;;;;;;4953380;28;20423;-76
2022/08/22 11:24:44;;;;;;;3.80;1.90;;;21.20;96.30;;;;;;4953929;29;20387;-76
2022/08/22 11:27:35;;;;;;;7.33;2.20;;;21.80;96.30;;;;;;4953966;29;20406;-76
2022/08/22 11:30:19;;;;;;;3.97;1.90;;;22.00;96.30;;;;;;4953443;29;20461;-75
2022/08/22 11:33:10;;;;;;;4.93;1.77;;;22.10;96.30;;;;;;4953412;29;20929;-75
2022/08/22 11:35:45;;;;;;;2.00;1.47;;;22.40;96.30;;;;;;4954042;29;20387;-75
2022/08/22 11:38:21;;;;;;;10.10;2.50;;;22.40;96.30;;;;;;4953722;29;20746;-74
2022/08/22 11:41:06;;;;;;;4.13;2.43;;;22.10;94.50;;;;;;4929277;29;20447;-74
2022/08/22 11:44:09;;;;;;;4.80;2.33;;;21.70;96.30;;;;;;4935081;29;20454;-74
2022/08/22 11:46:39;;;;;;;6.53;2.20;;;21.70;96.30;;;;;;4935089;29;20502;-74
2022/08/22 11:49:26;;;;;;;3.90;2.20;;;21.40;96.30;;;;;;4934511;29;20417;-74
2022/08/22 11:51:56;;;;;;;5.80;2.20;;;21.70;96.30;;;;;;4934636;29;20435;-75
2022/08/22 11:54:44;;;;;;;6.37;2.60;;;21.90;96.30;;;;;;4934833;29;20812;-75
2022/08/22 11:57:20;;;;;;;5.43;2.30;;;21.80;96.30;;;;;;4917777;29;20412;-77
2022/08/22 12:00:09;;;;;;;16.43;2.50;;;21.80;96.30;;;;;;4935066;29;20994;-76
2022/08/22 12:03:00;;;;;;;3.73;2.43;;;21.90;96.30;;;;;;4934017;28;20439;-74
2022/08/22 12:05:57;;;;;;;4.00;2.00;;;21.80;96.30;;;;;;4935908;28;20427;-75
2022/08/22 12:08:48;;;;;;;4.70;1.90;;;21.30;96.30;;;;;;4944068;28;20414;-75
2022/08/22 12:11:29;;;;;;;4.67;2.33;;;21.40;96.30;;;;;;4944370;28;21130;-74
2022/08/22 12:14:01;;;;;;;5.17;1.93;;;21.70;96.30;;;;;;4944354;28;20864;-75
2022/08/22 12:16:53;;;;;;;5.73;2.43;;;21.80;96.30;;;;;;4947118;28;20430;-75
2022/08/22 12:19:34;;;;;;;5.97;2.07;;;21.90;96.30;;;;;;4944281;28;20423;-74
2022/08/22 12:22:34;;;;;;;3.60;2.03;;;21.90;96.30;;;;;;4942272;28;20471;-75
2022/08/22 12:25:09;;;;;;;5.63;2.00;;;21.90;96.30;;;;;;4950046;28;20437;-75
2022/08/22 12:28:12;;;;;;;9.93;2.00;;;21.80;96.30;;;;;;4948867;28;21043;-75
2022/08/22 12:30:49;;;;;;;3.57;1.90;;;21.20;96.30;;;;;;4944966;28;20468;-76
2022/08/22 12:33:21;;;;;;;3.83;2.13;;;21.30;96.30;;;;;;4951798;28;20769;-76
2022/08/22 12:36:11;;;;;;;10.43;2.03;;;21.30;96.30;;;;;;4948496;28;20436;-75
2022/08/22 12:39:08;;;;;;;5.27;1.67;;;21.40;96.30;;;;;;4945608;29;20426;-75
2022/08/22 12:41:54;;;;;;;3.27;1.40;;;21.20;96.20;;;;;;4944666;28;20450;-74
2022/08/22 12:44:53;;;;;;;3.43;1.80;;;21.20;95.70;;;;;;4916938;29;20511;-74
2022/08/22 12:47:52;;;;;;;4.07;1.50;;;21.50;96.30;;;;;;4950674;28;20418;-75
2022/08/22 12:50:33;;;;;;;4.37;1.57;;;21.50;96.30;;;;;;4948367;28;20454;-76
2022/08/22 12:53:17;;;;;;;5.00;1.90;;;21.70;95.00;;;;;;4947712;28;20429;-76
2022/08/22 12:56:03;;;;;;;6.70;1.87;;;21.70;96.30;;;;;;4949419;28;20434;-75
2022/08/22 12:58:44;;;;;;;4.03;1.60;;;21.90;96.20;;;;;;4951676;28;21068;-79
2022/08/22 13:01:11;;;;;;;5.57;1.80;;;21.50;96.00;;;;;;4945509;28;20975;-76
2022/08/22 13:03:48;;;;;;;3.30;1.77;;;21.80;96.30;;;;;;4949172;28;20438;-77
2022/08/22 13:06:32;;;;;;;3.73;1.63;;;22.00;96.10;;;;;;4932606;28;21129;-76
2022/08/22 13:08:59;;;;;;;7.13;1.70;;;21.80;95.80;;;;;;4952362;28;20429;-74
2022/08/22 13:11:25;;;;;;;4.90;2.20;;;21.70;96.00;;;;;;4939536;28;20479;-74
2022/08/22 13:13:57;;;;;;;3.40;1.90;;;21.40;96.30;;;;;;4949249;28;20517;-75
2022/08/22 13:16:33;;;;;;;6.70;2.10;;;21.40;96.30;;;;;;4947199;28;20429;-78
2022/08/22 13:19:21;;;;;;;3.43;2.20;;;21.50;96.30;;;;;;4952486;28;20414;-75
2022/08/22 13:21:56;;;;;;;4.90;2.50;;;21.00;96.30;;;;;;4954641;28;20449;-75
2022/08/22 13:24:37;;;;;;;2.80;1.80;;;21.10;96.30;;;;;;4950856;28;20904;-76
2022/08/22 13:27:09;;;;;;;6.13;2.13;;;21.00;96.30;;;;;;4945950;28;20423;-77
2022/08/22 13:29:56;;;;;;;3.50;1.90;;;20.90;96.30;;;;;;4946461;28;20989;-76
2022/08/22 14:01:50;;;;;;;4.67;2.50;;;21.00;96.30;;;;;;3153403;26;20511;-74
2022/08/22 14:04:30;;;;;;;4.70;2.00;;;20.90;96.30;;;;;;4959473;28;20421;-74
2022/08/22 14:07:01;;;;;;;8.03;2.20;;;20.70;96.30;;;;;;4959943;28;20422;-74
2022/08/22 14:09:54;;;;;;;2.97;1.73;;;20.60;96.30;;;;;;4966786;28;20432;-73
2022/08/22 14:12:31;;;;;;;1.53;1.43;;;20.50;96.30;;;;;;4955871;28;20732;-74
2022/08/22 14:15:00;;;;;;;3.40;1.90;;;20.50;96.30;;;;;;4955829;28;20454;-73
2022/08/22 14:17:43;;;;;;;4.60;1.97;;;20.70;96.30;;;;;;4948893;28;20540;-74
2022/08/22 14:20:20;;;;;;;4.03;2.03;;;20.70;96.30;;;;;;4967396;28;20417;-74
2022/08/22 14:23:02;;;;;;;4.07;2.10;;;20.70;96.30;;;;;;4963352;28;20497;-74
2022/08/22 14:25:34;;;;;;;4.03;2.00;;;20.50;96.30;;;;;;4965927;28;20484;-74
2022/08/22 14:28:04;;;;;;;5.10;2.47;;;20.30;96.30;;;;;;4961123;28;20422;-74
2022/08/22 14:31:05;;;;;;;2.93;2.00;;;20.20;96.30;;;;;;4960724;28;20472;-74
2022/08/22 14:33:36;;;;;;;5.93;2.30;;;20.20;96.30;;;;;;4947978;28;20422;-74
2022/08/22 14:36:15;;;;;;;3.93;2.10;;;20.00;96.30;;;;;;4950975;28;20423;-73
2022/08/22 14:38:48;;;;;;;3.47;2.03;;;20.00;96.30;;;;;;4962585;28;20497;-71
2022/08/22 14:41:27;;;;;;;7.20;2.20;;;19.80;96.30;;;;;;4967359;28;20505;-73
2022/08/22 14:44:02;;;;;;;6.50;2.00;;;19.90;96.30;;;;;;4957018;28;20430;-73
2022/08/22 14:46:46;;;;;;;6.87;3.10;;;19.90;96.30;;;;;;4963841;28;20424;-74
2022/08/22 14:49:26;;;;;;;3.70;1.53;;;19.90;96.30;;;;;;4963971;28;20468;-73
2022/08/22 14:52:00;;;;;;;4.50;1.90;;;19.80;96.30;;;;;;4967491;28;20433;-74
2022/08/22 14:54:26;;;;;;;9.23;1.80;;;19.70;96.30;;;;;;4948887;28;20438;-73
2022/08/22 14:56:53;;;;;;;3.77;1.70;;;19.80;96.30;;;;;;4965843;28;20420;-74
2022/08/22 14:59:35;;;;;;;3.77;1.93;;;19.70;96.30;;;;;;4964545;28;20782;-73
2022/08/22 15:02:08;;;;;;;8.73;2.37;;;19.80;96.30;;;;;;4966987;28;20549;-74
2022/08/22 15:04:38;;;;;;;6.60;1.53;;;19.80;96.30;;;;;;4962014;28;20471;-74
2022/08/22 15:07:05;;;;;;;4.87;2.07;;;19.70;96.30;;;;;;4949588;28;20444;-74
2022/08/22 15:09:42;;;;;;;4.93;1.83;;;19.60;96.30;;;;;;4944642;28;20468;-74
2022/08/22 15:12:27;;;;;;;3.27;2.10;;;19.60;96.30;;;;;;4965019;28;20441;-74
2022/08/22 15:14:57;;;;;;;2.13;1.70;;;19.70;96.30;;;;;;4962328;28;20424;-74
2022/08/22 15:17:37;;;;;;;2.90;1.90;;;19.60;96.30;;;;;;4969881;28;20454;-74
2022/08/22 15:20:31;;;;;;;4.73;1.90;;;19.60;96.30;;;;;;4958523;28;20415;-74
2022/08/22 15:23:02;;;;;;;4.07;2.20;;;19.70;96.30;;;;;;4966278;28;20427;-74
2022/08/22 15:25:34;;;;;;;3.87;1.93;;;19.60;96.30;;;;;;4958443;28;20502;-74
2022/08/22 15:28:13;;;;;;;6.77;2.50;;;19.80;96.30;;;;;;4962944;28;20414;-74
2022/08/22 15:30:56;;;;;;;3.50;2.00;;;19.70;96.30;;;;;;4956089;28;20457;-74
2022/08/22 15:33:32;;;;;;;5.50;2.00;;;19.70;96.30;;;;;;4964425;28;20428;-75
2022/08/22 15:36:18;;;;;;;7.63;2.10;;;19.70;96.30;;;;;;4954884;28;20422;-74
2022/08/22 15:38:55;;;;;;;2.77;1.77;;;19.50;96.30;;;;;;4947619;28;20446;-76
2022/08/22 15:41:24;;;;;;;7.07;2.50;;;19.50;96.30;;;;;;4956419;28;21014;-74
2022/08/22 15:44:01;;;;;;;3.23;2.03;;;19.30;96.30;;;;;;4954120;28;20427;-75
2022/08/22 15:46:31;;;;;;;2.13;1.67;;;19.40;96.30;;;;;;4953645;28;20910;-74
2022/08/22 15:49:18;;;;;;;5.20;2.80;;;19.40;96.30;;;;;;4970368;28;20472;-74
2022/08/22 15:51:48;;;;;;;4.10;2.00;;;19.20;96.30;;;;;;4970771;28;20582;-75
2022/08/22 15:54:27;;;;;;;2.17;1.97;;;19.20;96.30;;;;;;4977070;28;20429;-74
2022/08/22 15:56:52;;;;;;;4.33;2.13;;;19.20;96.30;;;;;;4975706;28;20421;-76
2022/08/22 15:59:25;;;;;;;9.07;2.00;;;19.10;96.30;;;;;;4974614;28;20413;-76
2022/08/22 16:01:57;;;;;;;3.83;2.33;;;19.00;96.30;;;;;;4976307;28;20201;-75
2022/08/22 16:04:36;;;;;;;4.10;3.40;;;19.00;96.30;;;;;;4977205;28;20760;-74
2022/08/22 16:07:34;;;;;;;4.70;2.23;;;19.00;96.30;;;;;;4976768;28;20413;-74
2022/08/22 16:10:07;;;;;;;2.90;2.30;;;18.90;96.30;;;;;;4976010;28;20813;-75
2022/08/22 16:12:40;;;;;;;3.77;2.10;;;18.90;96.30;;;;;;4976573;28;20424;-75
2022/08/22 16:15:44;;;;;;;3.67;2.23;;;19.00;96.30;;;;;;4976551;28;20434;-75
2022/08/22 16:18:33;;;;;;;4.10;2.30;;;19.10;96.30;;;;;;4975668;28;20425;-75
2022/08/22 16:21:36;;;;;;;4.03;2.40;;;19.10;96.30;;;;;;4976101;28;20441;-74
2022/08/22 16:24:01;;;;;;;2.20;1.80;;;19.10;96.30;;;;;;4959139;28;20428;-75
2022/08/22 16:26:30;;;;;;;5.90;2.30;;;19.20;96.30;;;;;;4976051;28;20413;-76
2022/08/22 16:29:10;;;;;;;3.27;2.47;;;19.30;96.30;;;;;;4967568;28;20230;-74
2022/08/22 16:31:44;;;;;;;3.30;2.20;;;19.20;96.30;;;;;;4974624;28;20469;-75
2022/08/22 16:34:19;;;;;;;6.57;1.90;;;19.30;96.30;;;;;;4969863;28;20918;-75
2022/08/22 16:36:49;;;;;;;3.57;2.30;;;19.20;96.30;;;;;;4964373;28;20414;-75
2022/08/22 16:39:21;;;;;;;5.50;2.60;;;19.20;96.30;;;;;;4969973;28;20424;-75
2022/08/22 16:41:50;;;;;;;5.20;2.63;;;19.20;96.30;;;;;;4965346;28;20434;-77
2022/08/22 16:44:26;;;;;;;4.40;2.33;;;19.10;96.30;;;;;;4964834;28;20808;-77
2022/08/22 16:46:54;;;;;;;5.40;2.50;;;18.70;96.30;;;;;;4962927;28;20438;-77
2022/08/22 16:49:27;;;;;;;5.23;2.60;;;18.70;96.30;;;;;;4971433;28;20410;-78
2022/08/22 16:52:23;;;;;;;6.53;2.40;;;18.60;96.30;;;;;;4976047;28;20789;-77
2022/08/22 16:55:02;;;;;;;3.80;2.40;;;18.40;96.30;;;;;;4975907;28;20894;-77
2022/08/22 16:57:30;;;;;;;7.20;3.27;;;18.40;96.30;;;;;;4971780;28;20471;-77
2022/08/22 17:00:09;;;;;;;3.77;2.60;;;18.20;96.30;;;;;;4968154;28;20974;-78
2022/08/22 17:02:56;;;;;;;7.23;2.97;;;18.10;96.30;;;;;;4971466;28;20453;-77
2022/08/22 17:05:33;;;;;;;4.13;2.77;;;18.10;96.30;;;;;;4975475;28;20776;-76
2022/08/22 17:08:04;;;;;;;7.23;2.53;;;18.10;96.30;;;;;;4969377;28;20464;-77
2022/08/22 17:10:57;;;;;;;5.90;2.93;;;18.10;96.30;;;;;;4958300;28;20457;-77
2022/08/22 17:13:52;;;;;;;2.73;2.20;;;18.00;96.30;;;;;;4954908;29;20414;-77
2022/08/22 17:16:45;;;;;;;4.90;2.57;;;18.00;96.30;;;;;;4956396;28;20422;-77
2022/08/22 17:19:46;;;;;;;10.77;2.70;;;17.90;96.30;;;;;;4955868;29;20816;-77
2022/08/22 17:22:48;;;;;;;3.93;2.40;;;17.80;96.30;;;;;;4958944;28;20529;-77
2022/08/22 17:25:29;;;;;;;5.87;3.30;;;17.80;96.30;;;;;;4970201;28;20453;-77
2022/08/22 17:28:10;;;;;;;4.17;2.97;;;17.70;96.30;;;;;;4974775;28;20401;-76
2022/08/22 17:30:45;;;;;;;3.93;2.90;;;17.60;96.30;;;;;;4983293;28;20525;-78
2022/08/22 17:33:46;;;;;;;5.90;2.93;;;17.60;96.30;;;;;;4994577;28;20405;-78
2022/08/22 17:36:45;;;;;;;3.33;2.40;;;17.60;96.30;;;;;;4968718;28;20460;-78
2022/08/22 17:39:48;;;;;;;7.97;3.03;;;17.50;96.30;;;;;;4974417;28;20409;-78
2022/08/22 17:42:51;;;;;;;2.20;2.00;;;17.50;96.30;;;;;;4963843;28;20848;-78
2022/08/22 17:45:29;;;;;;;4.00;2.43;;;17.50;96.30;;;;;;4941743;28;20441;-75
2022/08/22 17:48:13;;;;;;;4.20;2.57;;;17.50;96.30;;;;;;4956736;29;20403;-75
2022/08/22 17:50:44;;;;;;;8.73;2.53;;;17.50;96.30;;;;;;4950832;28;20469;-78
2022/08/22 17:53:39;;;;;;;6.83;2.60;;;17.40;96.30;;;;;;4955723;29;20535;-75
2022/08/22 17:56:26;;;;;;;4.73;2.33;;;17.30;96.30;;;;;;4936992;29;20423;-75
2022/08/22 17:59:16;;;;;;;6.43;2.40;;;17.30;96.30;;;;;;4954628;29;20402;-77
2022/08/22 18:02:00;;;;;;;8.77;2.77;;;17.20;96.30;;;;;;4955543;28;20450;-74
2022/08/22 18:05:10;;;;;;;3.90;2.10;;;17.20;96.30;;;;;;4955614;29;20402;-75
2022/08/22 18:07:49;;;;;;;5.40;2.03;;;17.20;96.30;;;;;;4952319;29;20509;-75
2022/08/22 18:10:14;;;;;;;5.67;2.33;;;17.10;96.30;;;;;;4955007;28;20588;-76
2022/08/22 18:12:55;;;;;;;9.97;2.70;;;17.10;96.30;;;;;;4956152;28;20513;-76
2022/08/22 18:15:24;;;;;;;2.97;2.53;;;17.00;96.30;;;;;;4964586;28;20178;-76
2022/08/22 18:18:00;;;;;;;10.67;2.60;;;17.10;96.30;;;;;;4957498;28;20790;-75
2022/08/22 18:20:38;;;;;;;2.77;2.10;;;17.00;96.30;;;;;;4974685;28;20413;-75
2022/08/22 18:23:21;;;;;;;3.73;2.40;;;17.00;96.30;;;;;;4960941;28;20426;-74
2022/08/22 18:25:59;;;;;;;5.50;2.40;;;16.90;96.30;;;;;;4955210;29;20943;-74
2022/08/22 18:28:32;;;;;;;2.43;1.90;;;16.80;96.30;;;;;;4954672;29;20402;-74
2022/08/22 18:31:25;;;;;;;4.63;2.30;;;16.80;96.30;;;;;;4954782;29;20477;-75